Flight Track Log - Related Links

Times and Time Zones

All times are in EDT time to prevent confusion due to time zone crossing. See the ASQ4577 flight status page for this flight to view local times or setup timezone preferences in your user account.

Time Position Orientation Groundspeed Altitude Reporting Facility
EDT Latitude Longitude Course Direction KTS MPH feet Rate Location/Type
Wed 07:27:37 PM 41.4172 -81.8375 37° Northeast 161 185 1,600  Level Cleveland Center
Wed 07:28:20 PM 41.4467 -81.8186 26° Northeast 187 215 2,700 1,185 Climbing Cleveland Center
Wed 07:28:58 PM 41.4825 -81.7889 32° Northeast 258 297 3,200 1,837 Climbing Cleveland Center
Wed 07:29:58 PM 41.5456 -81.7511 24° Northeast 335 386 5,700 2,550 Climbing Cleveland Center
Wed 07:30:00 PM 41.6579 -81.5922 37° Northeast  Level FlightAware Approximate
Wed 07:30:58 PM 41.6064 -81.6911 36° Northeast 306 352 8,300  Level Cleveland Center
Wed 07:31:00 PM 41.7446 -81.5055 37° Northeast  Level FlightAware Approximate
Wed 07:31:58 PM 41.6675 -81.6228 40° Northeast 281 323 10,600  Level Cleveland Center
Wed 07:32:00 PM 41.8313 -81.4187 37° Northeast  Level FlightAware Approximate
Wed 07:32:58 PM 41.7308 -81.5458 42° Northeast 294 338 11,700  Level Cleveland Center
Wed 07:33:58 PM 41.8067 -81.4578 41° Northeast 316 364 13,800 1,800 Climbing Cleveland Center
Wed 07:34:58 PM 41.8511 -81.3469 62° Northeast 321 369 15,300 1,350 Climbing Cleveland Center
Wed 07:35:58 PM 41.8728 -81.2106 78° East 341 392 16,500 1,100 Climbing Cleveland Center
Wed 07:36:58 PM 41.9089 -81.0769 70° East 365 420 17,500 900 Climbing Cleveland Center
Wed 07:37:58 PM 41.9469 -80.9433 69° East 376 433 18,300 900 Climbing Cleveland Center
Wed 07:38:58 PM 41.9889 -80.8011 68° East 387 445 19,300 1,000 Climbing Cleveland Center
Wed 07:39:58 PM 42.0119 -80.6503 78° East 402 463 20,300 1,000 Climbing Cleveland Center
Wed 07:40:58 PM 42.0328 -80.4964 80° East 415 478 21,300 900 Climbing Cleveland Center
Wed 07:41:58 PM 42.0514 -80.3511 80° East 429 494 22,100 950 Climbing Cleveland Center
Wed 07:42:58 PM 42.0761 -80.1917 78° East 429 494 23,200 1,050 Climbing Cleveland Center
Wed 07:43:58 PM 42.0961 -80.0319 80° East 429 494 24,200 1,000 Climbing Cleveland Center
Wed 07:44:58 PM 42.1183 -79.8694 80° East 429 494 25,200 950 Climbing Cleveland Center
Wed 07:45:58 PM 42.1400 -79.7067 80° East 429 494 26,100 950 Climbing Cleveland Center
Wed 07:46:58 PM 42.1617 -79.5494 79° East 429 494 27,100 1,000 Climbing Cleveland Center
Wed 07:47:58 PM 42.1811 -79.3894 81° East 429 494 28,100 1,000 Climbing Cleveland Center
Wed 07:48:58 PM 42.2003 -79.2378 80° East 419 482 29,100 1,000 Climbing Cleveland Center
Wed 07:49:58 PM 42.2192 -79.0833 81° East 419 482 30,100 950 Climbing Cleveland Center
Wed 07:50:58 PM 42.2378 -78.9256 81° East 419 482 31,000 450 Climbing Cleveland Center
Wed 07:51:58 PM 42.2622 -78.7456 80° East 424 488 31,000  Level Cleveland Center
Wed 07:52:58 PM 42.2844 -78.5736 80° East 446 513 31,000  Level Cleveland Center
Wed 07:53:58 PM 42.3019 -78.3989 82° East 463 533 31,000  Level Cleveland Center
Wed 07:54:58 PM 42.3256 -78.2211 80° East 468 539 31,000  Level Cleveland Center
Wed 07:55:58 PM 42.3447 -78.0436 82° East 468 539 31,000 -150 Level Cleveland Center
Wed 07:56:58 PM 42.3636 -77.8686 82° East 468 539 30,700 -750 Descending Cleveland Center
Wed 07:57:58 PM 42.3844 -77.6933 81° East 468 539 29,500 -850 Descending Cleveland Center
Wed 07:58:58 PM 42.4028 -77.5181 82° East 468 539 29,000 -250 Descending Cleveland Center
Wed 07:59:58 PM 42.4231 -77.3428 81° East 468 539 29,000  Level Cleveland Center
Wed 08:02:18 PM 42.4661 -76.9244 82° East 483 556 29,000  Level Boston Center
Wed 08:03:18 PM 42.4853 -76.7483 82° East 483 556 29,000  Level Boston Center
Wed 08:04:18 PM 42.5025 -76.5664 83° East 483 556 29,000 -150 Level Boston Center
Wed 08:05:18 PM 42.5217 -76.3844 82° East 483 556 28,700 -600 Descending Boston Center
Wed 08:06:18 PM 42.5375 -76.2192 83° East 483 556 27,800 -900 Descending Boston Center
Wed 08:07:18 PM 42.5561 -76.0369 82° East 483 556 26,900 -850 Descending Boston Center
Wed 08:08:18 PM 42.5689 -75.8883 83° East 483 556 26,100 -950 Descending Boston Center
Wed 08:09:18 PM 42.5900 -75.6694 82° East 483 556 25,000 -1,000 Descending Boston Center
Wed 08:10:18 PM 42.6075 -75.4925 82° East 478 550 24,100 -1,050 Descending Boston Center
Wed 08:11:18 PM 42.6225 -75.3097 84° East 478 550 22,900 -2,150 Descending Boston Center
Wed 08:12:18 PM 42.6372 -75.1411 83° East 473 544 19,800 -2,800 Descending Boston Center
Wed 08:13:18 PM 42.6514 -74.9753 83° East 459 528 17,300 -2,638 Descending Boston Center
Wed 08:14:14 PM 42.6675 -74.8119 82° East 412 474 14,700 -2,600 Descending Boston Center
Wed 08:15:18 PM 42.6811 -74.6517 83° East 416 479 12,100 -1,790 Descending Boston Center
Wed 08:16:18 PM 42.6817 -74.5047 90° East 400 460 11,000 -1,000 Descending Boston Center
Wed 08:17:18 PM 42.6778 -74.3775 92° East 354 407 10,100 -1,250 Descending Boston Center
Wed 08:18:18 PM 42.6733 -74.2728 93° East 311 358 8,500 -1,650 Descending Boston Center
Wed 08:19:18 PM 42.6689 -74.1569 93° East 287 330 6,800 -1,550 Descending Boston Center
Wed 08:20:18 PM 42.6681 -74.0694 91° East 275 316 5,400 -1,400 Descending Boston Center
Wed 08:21:18 PM 42.6694 -73.9706 89° East 261 300 4,000 -1,250 Descending Boston Center
Wed 08:22:18 PM 42.6747 -73.8889 85° East 241 277 2,900 -850 Descending Boston Center
Wed 08:23:18 PM 42.6839 -73.8042 82° East 217 250 2,300 -600 Descending Boston Center

Login

Don't have an account? Register now (free) for customized features, flight alerts, and more!